sensor_id;sensor_type;location;lat;lon;timestamp;P1;durP1;ratioP1;P2;durP2;ratioP2
5060;SDS011;2549;52.128;21.068;2023-10-08T00:01:10;10.00;;;4.30;;
5060;SDS011;2549;52.128;21.068;2023-10-08T00:03:44;5.40;;;3.43;;
5060;SDS011;2549;52.128;21.068;2023-10-08T00:06:19;7.63;;;3.63;;
5060;SDS011;2549;52.128;21.068;2023-10-08T00:08:48;6.70;;;3.30;;
5060;SDS011;2549;52.128;21.068;2023-10-08T00:11:16;12.93;;;3.83;;
5060;SDS011;2549;52.128;21.068;2023-10-08T00:13:44;5.57;;;3.60;;
5060;SDS011;2549;52.128;21.068;2023-10-08T00:16:12;11.07;;;4.50;;
5060;SDS011;2549;52.128;21.068;2023-10-08T00:18:44;6.00;;;4.50;;
5060;SDS011;2549;52.128;21.068;2023-10-08T00:21:25;7.07;;;3.47;;
5060;SDS011;2549;52.128;21.068;2023-10-08T00:23:56;9.07;;;4.43;;
5060;SDS011;2549;52.128;21.068;2023-10-08T00:26:27;11.97;;;4.00;;
5060;SDS011;2549;52.128;21.068;2023-10-08T00:29:01;10.23;;;4.17;;
5060;SDS011;2549;52.128;21.068;2023-10-08T00:31:43;8.70;;;3.87;;
5060;SDS011;2549;52.128;21.068;2023-10-08T00:34:16;11.13;;;5.13;;
5060;SDS011;2549;52.128;21.068;2023-10-08T00:36:46;6.63;;;4.10;;
5060;SDS011;2549;52.128;21.068;2023-10-08T00:39:16;12.00;;;4.90;;
5060;SDS011;2549;52.128;21.068;2023-10-08T00:41:51;16.20;;;5.27;;
5060;SDS011;2549;52.128;21.068;2023-10-08T00:44:39;10.47;;;5.00;;
5060;SDS011;2549;52.128;21.068;2023-10-08T00:47:18;6.13;;;4.10;;
5060;SDS011;2549;52.128;21.068;2023-10-08T00:49:47;9.13;;;4.47;;
5060;SDS011;2549;52.128;21.068;2023-10-08T00:52:21;8.13;;;3.90;;
5060;SDS011;2549;52.128;21.068;2023-10-08T00:54:56;6.03;;;3.83;;
5060;SDS011;2549;52.128;21.068;2023-10-08T00:57:30;9.67;;;4.00;;
5060;SDS011;2549;52.128;21.068;2023-10-08T01:00:02;9.47;;;5.17;;
5060;SDS011;2549;52.128;21.068;2023-10-08T01:02:32;9.43;;;4.67;;
5060;SDS011;2549;52.128;21.068;2023-10-08T01:05:21;11.37;;;4.13;;
5060;SDS011;2549;52.128;21.068;2023-10-08T01:08:02;5.80;;;3.40;;
5060;SDS011;2549;52.128;21.068;2023-10-08T01:10:33;11.43;;;4.03;;
5060;SDS011;2549;52.128;21.068;2023-10-08T01:13:02;11.13;;;5.10;;
5060;SDS011;2549;52.128;21.068;2023-10-08T01:15:32;8.53;;;4.70;;
5060;SDS011;2549;52.128;21.068;2023-10-08T01:18:02;11.30;;;4.53;;
5060;SDS011;2549;52.128;21.068;2023-10-08T01:20:32;8.03;;;4.23;;
5060;SDS011;2549;52.128;21.068;2023-10-08T01:23:19;9.30;;;4.50;;
5060;SDS011;2549;52.128;21.068;2023-10-08T01:25:53;12.63;;;4.00;;
5060;SDS011;2549;52.128;21.068;2023-10-08T01:28:37;15.83;;;4.90;;
5060;SDS011;2549;52.128;21.068;2023-10-08T01:31:04;12.07;;;6.40;;
5060;SDS011;2549;52.128;21.068;2023-10-08T01:33:33;7.90;;;3.63;;
5060;SDS011;2549;52.128;21.068;2023-10-08T01:36:13;9.10;;;4.23;;
5060;SDS011;2549;52.128;21.068;2023-10-08T01:38:40;10.87;;;4.57;;
5060;SDS011;2549;52.128;21.068;2023-10-08T01:41:15;11.13;;;4.30;;
5060;SDS011;2549;52.128;21.068;2023-10-08T01:43:46;12.03;;;4.63;;
5060;SDS011;2549;52.128;21.068;2023-10-08T01:46:13;6.30;;;3.70;;
5060;SDS011;2549;52.128;21.068;2023-10-08T01:48:42;8.63;;;4.07;;
5060;SDS011;2549;52.128;21.068;2023-10-08T01:51:11;7.40;;;3.70;;
5060;SDS011;2549;52.128;21.068;2023-10-08T01:53:52;9.10;;;3.50;;
5060;SDS011;2549;52.128;21.068;2023-10-08T01:56:21;8.73;;;4.10;;
5060;SDS011;2549;52.128;21.068;2023-10-08T01:58:48;9.87;;;3.33;;
5060;SDS011;2549;52.128;21.068;2023-10-08T02:01:21;9.00;;;4.30;;
5060;SDS011;2549;52.128;21.068;2023-10-08T02:03:48;12.03;;;4.70;;
5060;SDS011;2549;52.128;21.068;2023-10-08T02:06:16;6.97;;;3.80;;
5060;SDS011;2549;52.128;21.068;2023-10-08T02:08:43;8.47;;;3.23;;
5060;SDS011;2549;52.128;21.068;2023-10-08T02:11:10;7.83;;;3.50;;
5060;SDS011;2549;52.128;21.068;2023-10-08T02:13:37;11.07;;;3.50;;
5060;SDS011;2549;52.128;21.068;2023-10-08T02:16:04;7.53;;;3.73;;
5060;SDS011;2549;52.128;21.068;2023-10-08T02:18:31;18.93;;;4.10;;
5060;SDS011;2549;52.128;21.068;2023-10-08T02:20:59;6.43;;;3.30;;
5060;SDS011;2549;52.128;21.068;2023-10-08T02:23:26;6.63;;;3.60;;
5060;SDS011;2549;52.128;21.068;2023-10-08T02:25:54;8.63;;;3.87;;
5060;SDS011;2549;52.128;21.068;2023-10-08T02:28:21;9.67;;;3.67;;
5060;SDS011;2549;52.128;21.068;2023-10-08T02:30:50;12.17;;;3.93;;
5060;SDS011;2549;52.128;21.068;2023-10-08T02:33:17;11.20;;;4.53;;
5060;SDS011;2549;52.128;21.068;2023-10-08T02:35:45;8.70;;;3.30;;
5060;SDS011;2549;52.128;21.068;2023-10-08T02:38:13;8.60;;;3.60;;
5060;SDS011;2549;52.128;21.068;2023-10-08T02:40:45;10.63;;;3.40;;
5060;SDS011;2549;52.128;21.068;2023-10-08T02:43:14;5.40;;;3.20;;
5060;SDS011;2549;52.128;21.068;2023-10-08T02:45:42;14.30;;;3.67;;
5060;SDS011;2549;52.128;21.068;2023-10-08T02:48:14;8.10;;;3.70;;
5060;SDS011;2549;52.128;21.068;2023-10-08T02:50:42;9.97;;;4.17;;
5060;SDS011;2549;52.128;21.068;2023-10-08T02:53:12;8.73;;;3.83;;
5060;SDS011;2549;52.128;21.068;2023-10-08T02:55:40;15.83;;;3.47;;
5060;SDS011;2549;52.128;21.068;2023-10-08T02:58:10;13.70;;;4.30;;
5060;SDS011;2549;52.128;21.068;2023-10-08T03:00:41;10.70;;;3.63;;
5060;SDS011;2549;52.128;21.068;2023-10-08T03:03:08;10.53;;;4.73;;
5060;SDS011;2549;52.128;21.068;2023-10-08T03:05:46;11.30;;;4.40;;
5060;SDS011;2549;52.128;21.068;2023-10-08T03:08:18;6.77;;;3.83;;
5060;SDS011;2549;52.128;21.068;2023-10-08T03:10:50;10.67;;;4.13;;
5060;SDS011;2549;52.128;21.068;2023-10-08T03:13:22;9.30;;;3.83;;
5060;SDS011;2549;52.128;21.068;2023-10-08T03:15:49;12.97;;;4.60;;
5060;SDS011;2549;52.128;21.068;2023-10-08T03:18:25;15.67;;;4.00;;
5060;SDS011;2549;52.128;21.068;2023-10-08T03:20:52;12.00;;;4.33;;
5060;SDS011;2549;52.128;21.068;2023-10-08T03:23:19;7.10;;;3.30;;
5060;SDS011;2549;52.128;21.068;2023-10-08T03:26:00;10.30;;;4.20;;
5060;SDS011;2549;52.128;21.068;2023-10-08T03:28:36;5.33;;;3.40;;
5060;SDS011;2549;52.128;21.068;2023-10-08T03:31:04;8.00;;;3.80;;
5060;SDS011;2549;52.128;21.068;2023-10-08T03:33:31;11.57;;;5.70;;
5060;SDS011;2549;52.128;21.068;2023-10-08T03:36:01;14.93;;;4.10;;
5060;SDS011;2549;52.128;21.068;2023-10-08T03:38:47;7.70;;;3.30;;
5060;SDS011;2549;52.128;21.068;2023-10-08T03:41:21;7.10;;;3.37;;
5060;SDS011;2549;52.128;21.068;2023-10-08T03:43:54;11.73;;;3.50;;
5060;SDS011;2549;52.128;21.068;2023-10-08T03:46:28;7.33;;;3.90;;
5060;SDS011;2549;52.128;21.068;2023-10-08T03:49:05;19.00;;;3.90;;
5060;SDS011;2549;52.128;21.068;2023-10-08T03:51:44;9.10;;;3.33;;
5060;SDS011;2549;52.128;21.068;2023-10-08T03:54:11;14.13;;;4.60;;
5060;SDS011;2549;52.128;21.068;2023-10-08T03:56:41;8.70;;;3.70;;
5060;SDS011;2549;52.128;21.068;2023-10-08T03:59:15;8.13;;;3.83;;
5060;SDS011;2549;52.128;21.068;2023-10-08T04:02:01;14.27;;;4.20;;
5060;SDS011;2549;52.128;21.068;2023-10-08T04:04:51;13.57;;;3.87;;
5060;SDS011;2549;52.128;21.068;2023-10-08T04:07:20;7.00;;;3.43;;
5060;SDS011;2549;52.128;21.068;2023-10-08T04:09:51;14.30;;;3.47;;
5060;SDS011;2549;52.128;21.068;2023-10-08T04:12:41;9.90;;;3.97;;
5060;SDS011;2549;52.128;21.068;2023-10-08T04:15:11;14.17;;;4.00;;
5060;SDS011;2549;52.128;21.068;2023-10-08T04:17:43;16.60;;;3.93;;
5060;SDS011;2549;52.128;21.068;2023-10-08T04:20:11;6.53;;;2.70;;
5060;SDS011;2549;52.128;21.068;2023-10-08T04:23:00;7.73;;;2.20;;
5060;SDS011;2549;52.128;21.068;2023-10-08T04:25:32;6.63;;;2.23;;
5060;SDS011;2549;52.128;21.068;2023-10-08T04:28:00;4.60;;;2.10;;
5060;SDS011;2549;52.128;21.068;2023-10-08T04:30:28;4.03;;;2.10;;
5060;SDS011;2549;52.128;21.068;2023-10-08T04:33:00;5.17;;;1.40;;
5060;SDS011;2549;52.128;21.068;2023-10-08T04:35:34;14.23;;;2.47;;
5060;SDS011;2549;52.128;21.068;2023-10-08T04:38:15;10.67;;;1.80;;
5060;SDS011;2549;52.128;21.068;2023-10-08T04:40:45;1.73;;;1.47;;
5060;SDS011;2549;52.128;21.068;2023-10-08T04:43:15;4.20;;;1.33;;
5060;SDS011;2549;52.128;21.068;2023-10-08T04:45:51;4.90;;;1.83;;
5060;SDS011;2549;52.128;21.068;2023-10-08T04:48:18;1.63;;;1.03;;
5060;SDS011;2549;52.128;21.068;2023-10-08T04:50:47;1.73;;;1.20;;
5060;SDS011;2549;52.128;21.068;2023-10-08T04:53:34;2.20;;;1.47;;
5060;SDS011;2549;52.128;21.068;2023-10-08T04:56:05;2.10;;;1.17;;
5060;SDS011;2549;52.128;21.068;2023-10-08T04:58:40;1.40;;;1.13;;
5060;SDS011;2549;52.128;21.068;2023-10-08T05:01:07;8.63;;;1.00;;
5060;SDS011;2549;52.128;21.068;2023-10-08T05:03:45;1.03;;;0.80;;
5060;SDS011;2549;52.128;21.068;2023-10-08T05:06:26;8.40;;;0.90;;
5060;SDS011;2549;52.128;21.068;2023-10-08T05:09:03;3.47;;;1.10;;
5060;SDS011;2549;52.128;21.068;2023-10-08T05:11:39;0.87;;;0.87;;
5060;SDS011;2549;52.128;21.068;2023-10-08T05:14:19;4.73;;;1.07;;
5060;SDS011;2549;52.128;21.068;2023-10-08T05:19:36;1.67;;;1.00;;
5060;SDS011;2549;52.128;21.068;2023-10-08T05:22:10;2.40;;;1.00;;
5060;SDS011;2549;52.128;21.068;2023-10-08T05:24:56;1.70;;;1.03;;
5060;SDS011;2549;52.128;21.068;2023-10-08T05:27:42;1.17;;;1.00;;
5060;SDS011;2549;52.128;21.068;2023-10-08T05:30:17;1.57;;;1.20;;
5060;SDS011;2549;52.128;21.068;2023-10-08T05:32:55;1.43;;;1.00;;
5060;SDS011;2549;52.128;21.068;2023-10-08T05:35:41;0.90;;;0.80;;
5060;SDS011;2549;52.128;21.068;2023-10-08T05:38:13;1.43;;;0.93;;
5060;SDS011;2549;52.128;21.068;2023-10-08T05:40:58;1.27;;;1.10;;
5060;SDS011;2549;52.128;21.068;2023-10-08T05:43:31;1.77;;;1.00;;
5060;SDS011;2549;52.128;21.068;2023-10-08T05:46:11;1.83;;;0.93;;
5060;SDS011;2549;52.128;21.068;2023-10-08T05:51:36;1.20;;;1.10;;
5060;SDS011;2549;52.128;21.068;2023-10-08T05:54:17;1.43;;;0.90;;
5060;SDS011;2549;52.128;21.068;2023-10-08T05:56:54;0.93;;;0.90;;
5060;SDS011;2549;52.128;21.068;2023-10-08T05:59:38;1.17;;;1.17;;
5060;SDS011;2549;52.128;21.068;2023-10-08T06:02:40;2.43;;;1.10;;
5060;SDS011;2549;52.128;21.068;2023-10-08T06:05:10;0.70;;;0.70;;
5060;SDS011;2549;52.128;21.068;2023-10-08T06:07:42;0.70;;;0.70;;
5060;SDS011;2549;52.128;21.068;2023-10-08T06:10:29;0.80;;;0.80;;
5060;SDS011;2549;52.128;21.068;2023-10-08T06:13:01;0.80;;;0.80;;
5060;SDS011;2549;52.128;21.068;2023-10-08T06:15:39;1.63;;;0.90;;
5060;SDS011;2549;52.128;21.068;2023-10-08T06:18:17;0.83;;;0.83;;
5060;SDS011;2549;52.128;21.068;2023-10-08T06:20:46;1.33;;;0.80;;
5060;SDS011;2549;52.128;21.068;2023-10-08T06:23:14;2.23;;;0.87;;
5060;SDS011;2549;52.128;21.068;2023-10-08T06:25:46;1.43;;;0.80;;
5060;SDS011;2549;52.128;21.068;2023-10-08T06:28:13;4.57;;;1.23;;
5060;SDS011;2549;52.128;21.068;2023-10-08T06:30:47;1.87;;;0.93;;
5060;SDS011;2549;52.128;21.068;2023-10-08T06:33:16;0.70;;;0.70;;
5060;SDS011;2549;52.128;21.068;2023-10-08T06:35:43;0.87;;;0.87;;
5060;SDS011;2549;52.128;21.068;2023-10-08T06:38:11;1.33;;;0.67;;
5060;SDS011;2549;52.128;21.068;2023-10-08T06:40:42;0.97;;;0.70;;
5060;SDS011;2549;52.128;21.068;2023-10-08T06:43:09;2.47;;;0.80;;
5060;SDS011;2549;52.128;21.068;2023-10-08T06:45:44;4.63;;;0.73;;
5060;SDS011;2549;52.128;21.068;2023-10-08T06:48:13;4.30;;;0.80;;
5060;SDS011;2549;52.128;21.068;2023-10-08T06:50:47;0.90;;;0.90;;
5060;SDS011;2549;52.128;21.068;2023-10-08T06:53:15;2.47;;;0.90;;
5060;SDS011;2549;52.128;21.068;2023-10-08T06:55:44;0.73;;;0.73;;
5060;SDS011;2549;52.128;21.068;2023-10-08T06:58:14;1.80;;;0.80;;
5060;SDS011;2549;52.128;21.068;2023-10-08T07:00:41;4.90;;;1.00;;
5060;SDS011;2549;52.128;21.068;2023-10-08T07:03:16;1.23;;;0.50;;
5060;SDS011;2549;52.128;21.068;2023-10-08T07:05:45;1.00;;;0.90;;
5060;SDS011;2549;52.128;21.068;2023-10-08T07:08:27;0.50;;;0.50;;
5060;SDS011;2549;52.128;21.068;2023-10-08T07:10:59;2.20;;;0.70;;
5060;SDS011;2549;52.128;21.068;2023-10-08T07:13:27;2.43;;;1.03;;
5060;SDS011;2549;52.128;21.068;2023-10-08T07:15:56;1.03;;;0.90;;
5060;SDS011;2549;52.128;21.068;2023-10-08T07:18:23;0.83;;;0.83;;
5060;SDS011;2549;52.128;21.068;2023-10-08T07:20:53;0.50;;;0.50;;
5060;SDS011;2549;52.128;21.068;2023-10-08T07:23:23;0.60;;;0.53;;
5060;SDS011;2549;52.128;21.068;2023-10-08T07:25:56;1.83;;;0.60;;
5060;SDS011;2549;52.128;21.068;2023-10-08T07:28:50;1.20;;;0.60;;
5060;SDS011;2549;52.128;21.068;2023-10-08T07:33:53;0.80;;;0.80;;
5060;SDS011;2549;52.128;21.068;2023-10-08T07:36:54;2.23;;;0.80;;
5060;SDS011;2549;52.128;21.068;2023-10-08T07:39:21;0.60;;;0.60;;
5060;SDS011;2549;52.128;21.068;2023-10-08T07:41:59;1.63;;;0.73;;
5060;SDS011;2549;52.128;21.068;2023-10-08T07:44:26;0.70;;;0.70;;
5060;SDS011;2549;52.128;21.068;2023-10-08T07:47:00;3.13;;;0.73;;
5060;SDS011;2549;52.128;21.068;2023-10-08T07:49:27;2.03;;;1.15;;
5060;SDS011;2549;52.128;21.068;2023-10-08T07:51:57;0.70;;;0.70;;
5060;SDS011;2549;52.128;21.068;2023-10-08T07:54:27;1.37;;;0.70;;
5060;SDS011;2549;52.128;21.068;2023-10-08T07:56:54;0.83;;;0.70;;
5060;SDS011;2549;52.128;21.068;2023-10-08T07:59:49;1.57;;;0.77;;
5060;SDS011;2549;52.128;21.068;2023-10-08T08:02:21;1.97;;;0.80;;
5060;SDS011;2549;52.128;21.068;2023-10-08T08:04:53;2.27;;;0.80;;
5060;SDS011;2549;52.128;21.068;2023-10-08T08:07:20;0.80;;;0.60;;
5060;SDS011;2549;52.128;21.068;2023-10-08T08:09:49;0.83;;;0.80;;
5060;SDS011;2549;52.128;21.068;2023-10-08T08:12:19;0.50;;;0.50;;
5060;SDS011;2549;52.128;21.068;2023-10-08T08:14:48;1.07;;;0.70;;
5060;SDS011;2549;52.128;21.068;2023-10-08T08:17:17;1.60;;;0.67;;
5060;SDS011;2549;52.128;21.068;2023-10-08T08:19:45;5.23;;;0.80;;
5060;SDS011;2549;52.128;21.068;2023-10-08T08:22:16;1.13;;;0.70;;
5060;SDS011;2549;52.128;21.068;2023-10-08T08:24:48;0.40;;;0.40;;
5060;SDS011;2549;52.128;21.068;2023-10-08T08:27:31;0.93;;;0.50;;
5060;SDS011;2549;52.128;21.068;2023-10-08T08:29:59;2.33;;;0.77;;
5060;SDS011;2549;52.128;21.068;2023-10-08T08:32:42;3.40;;;0.80;;
5060;SDS011;2549;52.128;21.068;2023-10-08T08:35:11;1.57;;;0.70;;
5060;SDS011;2549;52.128;21.068;2023-10-08T08:37:43;1.97;;;1.00;;
5060;SDS011;2549;52.128;21.068;2023-10-08T08:40:13;0.70;;;0.70;;
5060;SDS011;2549;52.128;21.068;2023-10-08T08:42:47;0.67;;;0.60;;
5060;SDS011;2549;52.128;21.068;2023-10-08T08:45:18;0.73;;;0.50;;
5060;SDS011;2549;52.128;21.068;2023-10-08T08:47:51;2.63;;;0.70;;
5060;SDS011;2549;52.128;21.068;2023-10-08T08:50:19;1.70;;;0.73;;
5060;SDS011;2549;52.128;21.068;2023-10-08T08:52:47;0.70;;;0.70;;
5060;SDS011;2549;52.128;21.068;2023-10-08T08:55:15;4.00;;;0.83;;
5060;SDS011;2549;52.128;21.068;2023-10-08T08:57:47;2.60;;;0.83;;
5060;SDS011;2549;52.128;21.068;2023-10-08T09:00:18;0.50;;;0.50;;
5060;SDS011;2549;52.128;21.068;2023-10-08T09:02:46;1.13;;;1.03;;
5060;SDS011;2549;52.128;21.068;2023-10-08T09:05:16;7.00;;;0.73;;
5060;SDS011;2549;52.128;21.068;2023-10-08T09:07:57;0.57;;;0.57;;
5060;SDS011;2549;52.128;21.068;2023-10-08T09:10:29;0.83;;;0.83;;
5060;SDS011;2549;52.128;21.068;2023-10-08T09:13:03;11.37;;;0.70;;
5060;SDS011;2549;52.128;21.068;2023-10-08T09:15:31;0.70;;;0.70;;
5060;SDS011;2549;52.128;21.068;2023-10-08T09:18:01;1.80;;;0.60;;
5060;SDS011;2549;52.128;21.068;2023-10-08T09:20:32;1.53;;;0.60;;
5060;SDS011;2549;52.128;21.068;2023-10-08T09:23:10;0.70;;;0.60;;
5060;SDS011;2549;52.128;21.068;2023-10-08T09:25:41;0.83;;;0.57;;
5060;SDS011;2549;52.128;21.068;2023-10-08T09:28:10;0.60;;;0.60;;
5060;SDS011;2549;52.128;21.068;2023-10-08T09:30:41;0.63;;;0.63;;
5060;SDS011;2549;52.128;21.068;2023-10-08T09:33:08;0.70;;;0.70;;
5060;SDS011;2549;52.128;21.068;2023-10-08T09:35:37;0.70;;;0.70;;
5060;SDS011;2549;52.128;21.068;2023-10-08T09:38:05;0.67;;;0.60;;
5060;SDS011;2549;52.128;21.068;2023-10-08T09:40:39;1.00;;;0.70;;
5060;SDS011;2549;52.128;21.068;2023-10-08T09:43:10;1.10;;;0.80;;
5060;SDS011;2549;52.128;21.068;2023-10-08T09:45:42;0.63;;;0.63;;
5060;SDS011;2549;52.128;21.068;2023-10-08T09:48:15;0.90;;;0.60;;
5060;SDS011;2549;52.128;21.068;2023-10-08T09:50:45;2.63;;;0.77;;
5060;SDS011;2549;52.128;21.068;2023-10-08T09:53:14;9.67;;;0.97;;
5060;SDS011;2549;52.128;21.068;2023-10-08T09:55:49;1.10;;;0.80;;
5060;SDS011;2549;52.128;21.068;2023-10-08T09:58:24;2.10;;;0.83;;
5060;SDS011;2549;52.128;21.068;2023-10-08T10:00:55;2.10;;;0.60;;
5060;SDS011;2549;52.128;21.068;2023-10-08T10:03:24;1.17;;;0.50;;
5060;SDS011;2549;52.128;21.068;2023-10-08T10:05:53;0.67;;;0.67;;
5060;SDS011;2549;52.128;21.068;2023-10-08T10:08:25;0.60;;;0.60;;
5060;SDS011;2549;52.128;21.068;2023-10-08T10:10:59;0.60;;;0.60;;
5060;SDS011;2549;52.128;21.068;2023-10-08T10:13:27;1.53;;;0.80;;
5060;SDS011;2549;52.128;21.068;2023-10-08T10:15:58;0.73;;;0.50;;
5060;SDS011;2549;52.128;21.068;2023-10-08T10:18:28;2.00;;;0.67;;
5060;SDS011;2549;52.128;21.068;2023-10-08T10:23:40;2.80;;;0.73;;
5060;SDS011;2549;52.128;21.068;2023-10-08T10:26:24;0.80;;;0.80;;
5060;SDS011;2549;52.128;21.068;2023-10-08T10:31:38;0.67;;;0.67;;
5060;SDS011;2549;52.128;21.068;2023-10-08T10:34:11;0.93;;;0.60;;
5060;SDS011;2549;52.128;21.068;2023-10-08T10:36:39;0.70;;;0.60;;
5060;SDS011;2549;52.128;21.068;2023-10-08T10:39:08;2.33;;;0.60;;
5060;SDS011;2549;52.128;21.068;2023-10-08T10:44:11;0.73;;;0.73;;
5060;SDS011;2549;52.128;21.068;2023-10-08T10:46:40;1.47;;;0.87;;
5060;SDS011;2549;52.128;21.068;2023-10-08T10:49:09;0.63;;;0.63;;
5060;SDS011;2549;52.128;21.068;2023-10-08T10:51:48;0.63;;;0.63;;
5060;SDS011;2549;52.128;21.068;2023-10-08T10:54:19;0.97;;;0.70;;
5060;SDS011;2549;52.128;21.068;2023-10-08T10:56:50;0.60;;;0.60;;
5060;SDS011;2549;52.128;21.068;2023-10-08T10:59:32;1.13;;;0.60;;
5060;SDS011;2549;52.128;21.068;2023-10-08T11:02:09;1.03;;;0.57;;
5060;SDS011;2549;52.128;21.068;2023-10-08T11:04:56;1.00;;;0.60;;
5060;SDS011;2549;52.128;21.068;2023-10-08T11:07:34;1.53;;;0.67;;
5060;SDS011;2549;52.128;21.068;2023-10-08T11:10:03;0.80;;;0.80;;
5060;SDS011;2549;52.128;21.068;2023-10-08T11:12:36;0.60;;;0.60;;
5060;SDS011;2549;52.128;21.068;2023-10-08T11:15:20;1.50;;;0.90;;
5060;SDS011;2549;52.128;21.068;2023-10-08T11:17:49;2.70;;;0.70;;
5060;SDS011;2549;52.128;21.068;2023-10-08T11:20:27;5.57;;;0.87;;
5060;SDS011;2549;52.128;21.068;2023-10-08T11:22:54;0.83;;;0.60;;
5060;SDS011;2549;52.128;21.068;2023-10-08T11:25:21;0.73;;;0.73;;
5060;SDS011;2549;52.128;21.068;2023-10-08T11:27:51;2.67;;;0.80;;
5060;SDS011;2549;52.128;21.068;2023-10-08T11:30:25;0.87;;;0.80;;
5060;SDS011;2549;52.128;21.068;2023-10-08T11:33:00;1.63;;;0.67;;
5060;SDS011;2549;52.128;21.068;2023-10-08T11:35:27;0.77;;;0.77;;
5060;SDS011;2549;52.128;21.068;2023-10-08T11:37:57;2.57;;;0.60;;
5060;SDS011;2549;52.128;21.068;2023-10-08T11:40:27;0.80;;;0.70;;
5060;SDS011;2549;52.128;21.068;2023-10-08T11:42:56;1.10;;;0.80;;
5060;SDS011;2549;52.128;21.068;2023-10-08T11:45:25;1.37;;;0.93;;
5060;SDS011;2549;52.128;21.068;2023-10-08T11:47:53;1.73;;;0.70;;
5060;SDS011;2549;52.128;21.068;2023-10-08T11:50:28;1.13;;;0.63;;
5060;SDS011;2549;52.128;21.068;2023-10-08T11:52:58;0.60;;;0.60;;
5060;SDS011;2549;52.128;21.068;2023-10-08T11:55:30;1.03;;;0.70;;
5060;SDS011;2549;52.128;21.068;2023-10-08T11:58:03;5.57;;;0.70;;
5060;SDS011;2549;52.128;21.068;2023-10-08T12:00:38;0.60;;;0.60;;
5060;SDS011;2549;52.128;21.068;2023-10-08T12:05:38;0.60;;;0.60;;
5060;SDS011;2549;52.128;21.068;2023-10-08T12:08:19;2.43;;;0.57;;
5060;SDS011;2549;52.128;21.068;2023-10-08T12:10:47;2.20;;;0.90;;
5060;SDS011;2549;52.128;21.068;2023-10-08T12:13:15;0.70;;;0.70;;
5060;SDS011;2549;52.128;21.068;2023-10-08T12:15:44;0.73;;;0.73;;
5060;SDS011;2549;52.128;21.068;2023-10-08T12:18:11;2.80;;;0.73;;
5060;SDS011;2549;52.128;21.068;2023-10-08T12:20:42;0.50;;;0.50;;
5060;SDS011;2549;52.128;21.068;2023-10-08T12:23:10;1.23;;;0.60;;
5060;SDS011;2549;52.128;21.068;2023-10-08T12:25:37;1.33;;;0.90;;
5060;SDS011;2549;52.128;21.068;2023-10-08T12:28:05;0.50;;;0.50;;
5060;SDS011;2549;52.128;21.068;2023-10-08T12:30:33;5.83;;;1.67;;
5060;SDS011;2549;52.128;21.068;2023-10-08T12:33:07;0.60;;;0.60;;
5060;SDS011;2549;52.128;21.068;2023-10-08T12:35:42;1.63;;;0.50;;
5060;SDS011;2549;52.128;21.068;2023-10-08T12:38:10;2.63;;;0.70;;
5060;SDS011;2549;52.128;21.068;2023-10-08T12:40:39;2.00;;;0.70;;
5060;SDS011;2549;52.128;21.068;2023-10-08T12:45:47;1.07;;;0.60;;
5060;SDS011;2549;52.128;21.068;2023-10-08T12:48:21;3.43;;;0.70;;
5060;SDS011;2549;52.128;21.068;2023-10-08T12:50:53;0.60;;;0.60;;
5060;SDS011;2549;52.128;21.068;2023-10-08T12:53:26;1.63;;;1.00;;
5060;SDS011;2549;52.128;21.068;2023-10-08T12:56:00;6.00;;;0.80;;
5060;SDS011;2549;52.128;21.068;2023-10-08T12:58:34;0.70;;;0.70;;
5060;SDS011;2549;52.128;21.068;2023-10-08T13:01:08;0.60;;;0.60;;
5060;SDS011;2549;52.128;21.068;2023-10-08T13:03:39;0.50;;;0.50;;
5060;SDS011;2549;52.128;21.068;2023-10-08T13:06:14;4.67;;;0.70;;
5060;SDS011;2549;52.128;21.068;2023-10-08T13:08:51;0.60;;;0.60;;
5060;SDS011;2549;52.128;21.068;2023-10-08T13:11:19;2.60;;;0.80;;
5060;SDS011;2549;52.128;21.068;2023-10-08T13:16:18;1.00;;;0.90;;
5060;SDS011;2549;52.128;21.068;2023-10-08T13:18:47;0.93;;;0.70;;
5060;SDS011;2549;52.128;21.068;2023-10-08T13:21:15;2.83;;;0.83;;
5060;SDS011;2549;52.128;21.068;2023-10-08T13:23:42;1.07;;;0.90;;
5060;SDS011;2549;52.128;21.068;2023-10-08T13:26:09;2.93;;;0.80;;
5060;SDS011;2549;52.128;21.068;2023-10-08T13:28:43;0.70;;;0.70;;
5060;SDS011;2549;52.128;21.068;2023-10-08T13:31:10;5.37;;;0.70;;
5060;SDS011;2549;52.128;21.068;2023-10-08T13:33:38;2.87;;;0.77;;
5060;SDS011;2549;52.128;21.068;2023-10-08T13:36:06;2.30;;;0.90;;
5060;SDS011;2549;52.128;21.068;2023-10-08T13:38:44;1.03;;;0.70;;
5060;SDS011;2549;52.128;21.068;2023-10-08T13:41:12;2.33;;;1.13;;
5060;SDS011;2549;52.128;21.068;2023-10-08T13:43:44;0.93;;;0.70;;
5060;SDS011;2549;52.128;21.068;2023-10-08T13:46:16;0.87;;;0.70;;
5060;SDS011;2549;52.128;21.068;2023-10-08T13:48:45;1.93;;;0.70;;
5060;SDS011;2549;52.128;21.068;2023-10-08T13:51:15;1.10;;;0.70;;
5060;SDS011;2549;52.128;21.068;2023-10-08T13:53:47;1.23;;;0.60;;
5060;SDS011;2549;52.128;21.068;2023-10-08T13:56:27;0.70;;;0.70;;
5060;SDS011;2549;52.128;21.068;2023-10-08T13:59:00;2.67;;;0.60;;
5060;SDS011;2549;52.128;21.068;2023-10-08T14:01:32;1.13;;;1.03;;
5060;SDS011;2549;52.128;21.068;2023-10-08T14:04:00;3.60;;;0.87;;
5060;SDS011;2549;52.128;21.068;2023-10-08T14:06:33;0.67;;;0.67;;
5060;SDS011;2549;52.128;21.068;2023-10-08T14:09:01;0.83;;;0.70;;
5060;SDS011;2549;52.128;21.068;2023-10-08T14:11:33;1.30;;;0.60;;
5060;SDS011;2549;52.128;21.068;2023-10-08T14:14:01;0.80;;;0.80;;
5060;SDS011;2549;52.128;21.068;2023-10-08T14:16:34;1.40;;;1.03;;
5060;SDS011;2549;52.128;21.068;2023-10-08T14:19:01;0.80;;;0.70;;
5060;SDS011;2549;52.128;21.068;2023-10-08T14:21:31;1.27;;;0.80;;
5060;SDS011;2549;52.128;21.068;2023-10-08T14:24:03;1.13;;;0.90;;
5060;SDS011;2549;52.128;21.068;2023-10-08T14:26:31;0.80;;;0.73;;
5060;SDS011;2549;52.128;21.068;2023-10-08T14:29:03;0.83;;;0.80;;
5060;SDS011;2549;52.128;21.068;2023-10-08T14:31:43;3.37;;;0.90;;
5060;SDS011;2549;52.128;21.068;2023-10-08T14:34:16;0.83;;;0.83;;
5060;SDS011;2549;52.128;21.068;2023-10-08T14:36:47;1.90;;;1.00;;
5060;SDS011;2549;52.128;21.068;2023-10-08T14:39:34;1.10;;;0.90;;
5060;SDS011;2549;52.128;21.068;2023-10-08T14:42:19;0.90;;;0.60;;
5060;SDS011;2549;52.128;21.068;2023-10-08T14:45:05;0.90;;;0.90;;
5060;SDS011;2549;52.128;21.068;2023-10-08T14:47:37;0.97;;;0.80;;
5060;SDS011;2549;52.128;21.068;2023-10-08T14:50:05;23.10;;;1.10;;
5060;SDS011;2549;52.128;21.068;2023-10-08T14:52:45;0.67;;;0.60;;
5060;SDS011;2549;52.128;21.068;2023-10-08T14:55:13;1.00;;;0.70;;
5060;SDS011;2549;52.128;21.068;2023-10-08T14:57:40;8.10;;;1.27;;
5060;SDS011;2549;52.128;21.068;2023-10-08T15:00:08;1.00;;;0.70;;
5060;SDS011;2549;52.128;21.068;2023-10-08T15:02:37;0.70;;;0.70;;
5060;SDS011;2549;52.128;21.068;2023-10-08T15:05:05;0.60;;;0.60;;
5060;SDS011;2549;52.128;21.068;2023-10-08T15:07:33;1.03;;;0.83;;
5060;SDS011;2549;52.128;21.068;2023-10-08T15:10:01;0.80;;;0.60;;
5060;SDS011;2549;52.128;21.068;2023-10-08T15:12:28;0.50;;;0.50;;
5060;SDS011;2549;52.128;21.068;2023-10-08T15:14:54;2.57;;;0.97;;
5060;SDS011;2549;52.128;21.068;2023-10-08T15:17:21;0.70;;;0.70;;
5060;SDS011;2549;52.128;21.068;2023-10-08T15:19:48;1.30;;;1.30;;
5060;SDS011;2549;52.128;21.068;2023-10-08T15:22:17;0.90;;;0.90;;
5060;SDS011;2549;52.128;21.068;2023-10-08T15:24:44;9.70;;;1.13;;
5060;SDS011;2549;52.128;21.068;2023-10-08T15:27:11;1.50;;;1.03;;
5060;SDS011;2549;52.128;21.068;2023-10-08T15:29:38;1.43;;;0.97;;
5060;SDS011;2549;52.128;21.068;2023-10-08T15:32:05;0.60;;;0.50;;
5060;SDS011;2549;52.128;21.068;2023-10-08T15:34:32;0.90;;;0.63;;
5060;SDS011;2549;52.128;21.068;2023-10-08T15:37:05;2.73;;;1.10;;
5060;SDS011;2549;52.128;21.068;2023-10-08T15:39:33;1.63;;;0.83;;
5060;SDS011;2549;52.128;21.068;2023-10-08T15:42:00;2.00;;;1.03;;
5060;SDS011;2549;52.128;21.068;2023-10-08T15:44:27;0.70;;;0.63;;
5060;SDS011;2549;52.128;21.068;2023-10-08T15:46:54;3.43;;;0.83;;
5060;SDS011;2549;52.128;21.068;2023-10-08T15:49:21;1.10;;;0.83;;
5060;SDS011;2549;52.128;21.068;2023-10-08T15:51:48;4.97;;;0.87;;
5060;SDS011;2549;52.128;21.068;2023-10-08T15:54:17;3.53;;;2.70;;